sensor_id;sensor_type;location;lat;lon;timestamp;temperature;humidity
7646;DHT22;3864;48.180;14.178;2023-06-26T00:01:42;14.50;99.90
7646;DHT22;3864;48.180;14.178;2023-06-26T00:04:09;14.50;99.90
7646;DHT22;3864;48.180;14.178;2023-06-26T00:06:40;14.60;99.90
7646;DHT22;3864;48.180;14.178;2023-06-26T00:09:07;14.60;99.90
7646;DHT22;3864;48.180;14.178;2023-06-26T00:11:35;14.50;99.90
7646;DHT22;3864;48.180;14.178;2023-06-26T00:14:03;14.50;99.90
7646;DHT22;3864;48.180;14.178;2023-06-26T00:16:32;14.50;99.90
7646;DHT22;3864;48.180;14.178;2023-06-26T00:18:59;14.50;99.90
7646;DHT22;3864;48.180;14.178;2023-06-26T00:21:26;14.60;99.90
7646;DHT22;3864;48.180;14.178;2023-06-26T00:23:54;14.80;99.90
7646;DHT22;3864;48.180;14.178;2023-06-26T00:26:21;14.80;99.90
7646;DHT22;3864;48.180;14.178;2023-06-26T00:28:49;14.80;99.90
7646;DHT22;3864;48.180;14.178;2023-06-26T00:31:18;14.80;99.90
7646;DHT22;3864;48.180;14.178;2023-06-26T00:33:45;14.70;99.90
7646;DHT22;3864;48.180;14.178;2023-06-26T00:36:13;14.70;99.90
7646;DHT22;3864;48.180;14.178;2023-06-26T00:38:40;14.60;99.90
7646;DHT22;3864;48.180;14.178;2023-06-26T00:41:07;14.50;99.90
7646;DHT22;3864;48.180;14.178;2023-06-26T00:43:38;14.40;99.90
7646;DHT22;3864;48.180;14.178;2023-06-26T00:46:09;14.30;99.90
7646;DHT22;3864;48.180;14.178;2023-06-26T00:48:39;14.30;99.90
7646;DHT22;3864;48.180;14.178;2023-06-26T00:51:08;14.30;99.90
7646;DHT22;3864;48.180;14.178;2023-06-26T00:53:35;14.20;99.90
7646;DHT22;3864;48.180;14.178;2023-06-26T00:56:03;14.10;99.90
7646;DHT22;3864;48.180;14.178;2023-06-26T00:58:31;14.00;99.90
7646;DHT22;3864;48.180;14.178;2023-06-26T01:00:58;14.00;99.90
7646;DHT22;3864;48.180;14.178;2023-06-26T01:03:26;14.00;99.90
7646;DHT22;3864;48.180;14.178;2023-06-26T01:05:56;13.90;99.90
7646;DHT22;3864;48.180;14.178;2023-06-26T01:08:23;13.90;99.90
7646;DHT22;3864;48.180;14.178;2023-06-26T01:10:51;13.80;99.90
7646;DHT22;3864;48.180;14.178;2023-06-26T01:13:19;13.70;99.90
7646;DHT22;3864;48.180;14.178;2023-06-26T01:15:47;13.70;99.90
7646;DHT22;3864;48.180;14.178;2023-06-26T01:18:15;13.70;99.90
7646;DHT22;3864;48.180;14.178;2023-06-26T01:20:43;13.70;99.90
7646;DHT22;3864;48.180;14.178;2023-06-26T01:23:17;13.70;99.90
7646;DHT22;3864;48.180;14.178;2023-06-26T01:25:56;13.70;99.90
7646;DHT22;3864;48.180;14.178;2023-06-26T01:28:30;13.70;99.90
7646;DHT22;3864;48.180;14.178;2023-06-26T01:30:59;13.70;99.90
7646;DHT22;3864;48.180;14.178;2023-06-26T01:33:27;13.70;99.90
7646;DHT22;3864;48.180;14.178;2023-06-26T01:35:55;13.70;99.90
7646;DHT22;3864;48.180;14.178;2023-06-26T01:38:22;13.60;99.90
7646;DHT22;3864;48.180;14.178;2023-06-26T01:40:50;13.60;99.90
7646;DHT22;3864;48.180;14.178;2023-06-26T01:43:24;13.50;99.90
7646;DHT22;3864;48.180;14.178;2023-06-26T01:45:58;13.60;99.90
7646;DHT22;3864;48.180;14.178;2023-06-26T01:48:32;13.60;99.90
7646;DHT22;3864;48.180;14.178;2023-06-26T01:51:01;13.70;99.90
7646;DHT22;3864;48.180;14.178;2023-06-26T01:53:34;13.70;99.90
7646;DHT22;3864;48.180;14.178;2023-06-26T01:56:07;13.60;99.90
7646;DHT22;3864;48.180;14.178;2023-06-26T01:58:35;13.60;99.90
7646;DHT22;3864;48.180;14.178;2023-06-26T02:01:06;13.50;99.90
7646;DHT22;3864;48.180;14.178;2023-06-26T02:03:33;13.40;99.90
7646;DHT22;3864;48.180;14.178;2023-06-26T02:06:01;13.40;99.90
7646;DHT22;3864;48.180;14.178;2023-06-26T02:08:28;13.30;99.90
7646;DHT22;3864;48.180;14.178;2023-06-26T02:10:55;13.20;99.90
7646;DHT22;3864;48.180;14.178;2023-06-26T02:13:23;13.20;99.90
7646;DHT22;3864;48.180;14.178;2023-06-26T02:15:50;13.20;99.90
7646;DHT22;3864;48.180;14.178;2023-06-26T02:18:19;13.10;99.90
7646;DHT22;3864;48.180;14.178;2023-06-26T02:20:47;13.00;99.90
7646;DHT22;3864;48.180;14.178;2023-06-26T02:23:15;13.10;99.90
7646;DHT22;3864;48.180;14.178;2023-06-26T02:25:42;13.00;99.90
7646;DHT22;3864;48.180;14.178;2023-06-26T02:28:09;13.00;99.90
7646;DHT22;3864;48.180;14.178;2023-06-26T02:30:37;13.00;99.90
7646;DHT22;3864;48.180;14.178;2023-06-26T02:33:04;12.90;99.90
7646;DHT22;3864;48.180;14.178;2023-06-26T02:35:33;12.90;99.90
7646;DHT22;3864;48.180;14.178;2023-06-26T02:38:00;12.90;99.90
7646;DHT22;3864;48.180;14.178;2023-06-26T02:40:28;12.90;99.90
7646;DHT22;3864;48.180;14.178;2023-06-26T02:42:55;12.90;99.90
7646;DHT22;3864;48.180;14.178;2023-06-26T02:45:22;12.90;99.90
7646;DHT22;3864;48.180;14.178;2023-06-26T02:47:50;12.90;99.90
7646;DHT22;3864;48.180;14.178;2023-06-26T02:50:17;12.90;99.90
7646;DHT22;3864;48.180;14.178;2023-06-26T02:52:46;12.90;99.90
7646;DHT22;3864;48.180;14.178;2023-06-26T02:55:17;12.90;99.90
7646;DHT22;3864;48.180;14.178;2023-06-26T02:57:45;12.80;99.90
7646;DHT22;3864;48.180;14.178;2023-06-26T03:00:13;12.90;99.90
7646;DHT22;3864;48.180;14.178;2023-06-26T03:02:41;12.80;99.90
7646;DHT22;3864;48.180;14.178;2023-06-26T03:05:08;12.80;99.90
7646;DHT22;3864;48.180;14.178;2023-06-26T03:07:35;12.80;99.90
7646;DHT22;3864;48.180;14.178;2023-06-26T03:10:05;12.80;99.90
7646;DHT22;3864;48.180;14.178;2023-06-26T03:12:33;12.80;99.90
7646;DHT22;3864;48.180;14.178;2023-06-26T03:15:00;12.90;99.90
7646;DHT22;3864;48.180;14.178;2023-06-26T03:17:27;12.80;99.90
7646;DHT22;3864;48.180;14.178;2023-06-26T03:19:54;12.80;99.90
7646;DHT22;3864;48.180;14.178;2023-06-26T03:22:22;12.80;99.90
7646;DHT22;3864;48.180;14.178;2023-06-26T03:24:49;12.80;99.90
7646;DHT22;3864;48.180;14.178;2023-06-26T03:27:18;12.80;99.90
7646;DHT22;3864;48.180;14.178;2023-06-26T03:29:46;12.80;99.90
7646;DHT22;3864;48.180;14.178;2023-06-26T03:32:13;12.80;99.90
7646;DHT22;3864;48.180;14.178;2023-06-26T03:34:40;12.90;99.90
7646;DHT22;3864;48.180;14.178;2023-06-26T03:37:08;12.80;99.90
7646;DHT22;3864;48.180;14.178;2023-06-26T03:39:35;12.90;99.90
7646;DHT22;3864;48.180;14.178;2023-06-26T03:42:02;12.90;99.90
7646;DHT22;3864;48.180;14.178;2023-06-26T03:44:31;13.00;99.90
7646;DHT22;3864;48.180;14.178;2023-06-26T03:46:59;13.00;99.90
7646;DHT22;3864;48.180;14.178;2023-06-26T03:49:26;13.00;99.90
7646;DHT22;3864;48.180;14.178;2023-06-26T03:51:53;13.10;99.90
7646;DHT22;3864;48.180;14.178;2023-06-26T03:54:21;13.10;99.90
7646;DHT22;3864;48.180;14.178;2023-06-26T03:56:48;13.20;99.90
7646;DHT22;3864;48.180;14.178;2023-06-26T03:59:15;13.20;99.90
7646;DHT22;3864;48.180;14.178;2023-06-26T04:01:44;13.30;99.90
7646;DHT22;3864;48.180;14.178;2023-06-26T04:04:11;13.30;99.90
7646;DHT22;3864;48.180;14.178;2023-06-26T04:06:39;13.40;99.90
7646;DHT22;3864;48.180;14.178;2023-06-26T04:09:06;13.50;99.90
7646;DHT22;3864;48.180;14.178;2023-06-26T04:11:33;13.50;99.90
7646;DHT22;3864;48.180;14.178;2023-06-26T04:14:00;13.60;99.90
7646;DHT22;3864;48.180;14.178;2023-06-26T04:16:29;13.70;99.90
7646;DHT22;3864;48.180;14.178;2023-06-26T04:18:58;13.80;99.90
7646;DHT22;3864;48.180;14.178;2023-06-26T04:21:25;13.90;99.90
7646;DHT22;3864;48.180;14.178;2023-06-26T04:23:52;13.90;99.90
7646;DHT22;3864;48.180;14.178;2023-06-26T04:26:20;14.10;99.90
7646;DHT22;3864;48.180;14.178;2023-06-26T04:28:47;14.50;99.90
7646;DHT22;3864;48.180;14.178;2023-06-26T04:31:14;14.90;99.90
7646;DHT22;3864;48.180;14.178;2023-06-26T04:33:42;15.30;99.90
7646;DHT22;3864;48.180;14.178;2023-06-26T04:36:11;16.70;99.90
7646;DHT22;3864;48.180;14.178;2023-06-26T04:38:38;17.60;99.90
7646;DHT22;3864;48.180;14.178;2023-06-26T04:41:05;17.90;99.90
7646;DHT22;3864;48.180;14.178;2023-06-26T04:43:33;18.20;99.90
7646;DHT22;3864;48.180;14.178;2023-06-26T04:46:01;18.90;99.90
7646;DHT22;3864;48.180;14.178;2023-06-26T04:48:29;19.80;99.90
7646;DHT22;3864;48.180;14.178;2023-06-26T04:50:56;20.90;99.90
7646;DHT22;3864;48.180;14.178;2023-06-26T04:53:26;22.20;99.90
7646;DHT22;3864;48.180;14.178;2023-06-26T04:55:53;23.40;99.90
7646;DHT22;3864;48.180;14.178;2023-06-26T04:58:21;24.20;99.90
7646;DHT22;3864;48.180;14.178;2023-06-26T05:00:48;24.70;99.90
7646;DHT22;3864;48.180;14.178;2023-06-26T05:03:16;25.50;99.90
7646;DHT22;3864;48.180;14.178;2023-06-26T05:05:44;25.60;99.90
7646;DHT22;3864;48.180;14.178;2023-06-26T05:08:15;25.80;99.90
7646;DHT22;3864;48.180;14.178;2023-06-26T05:10:45;25.60;99.90
7646;DHT22;3864;48.180;14.178;2023-06-26T05:13:12;25.60;99.90
7646;DHT22;3864;48.180;14.178;2023-06-26T05:15:43;26.00;99.90
7646;DHT22;3864;48.180;14.178;2023-06-26T05:18:10;26.30;99.90
7646;DHT22;3864;48.180;14.178;2023-06-26T05:20:38;26.70;99.90
7646;DHT22;3864;48.180;14.178;2023-06-26T05:23:05;27.40;99.90
7646;DHT22;3864;48.180;14.178;2023-06-26T05:25:33;27.40;99.90
7646;DHT22;3864;48.180;14.178;2023-06-26T05:28:03;27.60;99.90
7646;DHT22;3864;48.180;14.178;2023-06-26T05:30:32;28.10;99.90
7646;DHT22;3864;48.180;14.178;2023-06-26T05:33:01;27.30;99.90
7646;DHT22;3864;48.180;14.178;2023-06-26T05:35:31;27.50;99.90
7646;DHT22;3864;48.180;14.178;2023-06-26T05:37:59;28.50;99.90
7646;DHT22;3864;48.180;14.178;2023-06-26T05:40:27;29.30;99.90
7646;DHT22;3864;48.180;14.178;2023-06-26T05:42:55;29.50;99.90
7646;DHT22;3864;48.180;14.178;2023-06-26T05:45:23;29.70;99.90
7646;DHT22;3864;48.180;14.178;2023-06-26T05:47:51;29.60;99.90
7646;DHT22;3864;48.180;14.178;2023-06-26T05:50:19;29.20;99.90
7646;DHT22;3864;48.180;14.178;2023-06-26T05:52:47;29.70;99.90
7646;DHT22;3864;48.180;14.178;2023-06-26T05:55:15;29.70;99.90
7646;DHT22;3864;48.180;14.178;2023-06-26T05:57:42;29.30;99.90
7646;DHT22;3864;48.180;14.178;2023-06-26T06:00:11;29.70;99.90
7646;DHT22;3864;48.180;14.178;2023-06-26T06:02:41;30.70;99.90
7646;DHT22;3864;48.180;14.178;2023-06-26T06:05:09;31.30;99.90
7646;DHT22;3864;48.180;14.178;2023-06-26T06:07:38;31.30;99.90
7646;DHT22;3864;48.180;14.178;2023-06-26T06:10:10;31.70;99.90
7646;DHT22;3864;48.180;14.178;2023-06-26T06:12:39;31.80;99.90
7646;DHT22;3864;48.180;14.178;2023-06-26T06:15:13;31.60;99.90
7646;DHT22;3864;48.180;14.178;2023-06-26T06:17:42;31.90;99.90
7646;DHT22;3864;48.180;14.178;2023-06-26T06:20:11;32.30;99.90
7646;DHT22;3864;48.180;14.178;2023-06-26T06:22:38;32.60;99.40
7646;DHT22;3864;48.180;14.178;2023-06-26T06:25:06;32.90;99.90
7646;DHT22;3864;48.180;14.178;2023-06-26T06:27:36;32.60;99.50
7646;DHT22;3864;48.180;14.178;2023-06-26T06:30:05;32.80;99.90
7646;DHT22;3864;48.180;14.178;2023-06-26T06:32:34;32.90;99.90
7646;DHT22;3864;48.180;14.178;2023-06-26T06:35:03;32.50;99.60
7646;DHT22;3864;48.180;14.178;2023-06-26T06:37:35;32.90;98.40
7646;DHT22;3864;48.180;14.178;2023-06-26T06:40:03;30.10;98.70
7646;DHT22;3864;48.180;14.178;2023-06-26T06:42:31;31.50;99.90
7646;DHT22;3864;48.180;14.178;2023-06-26T06:45:00;32.40;99.90
7646;DHT22;3864;48.180;14.178;2023-06-26T06:47:27;32.70;99.00
7646;DHT22;3864;48.180;14.178;2023-06-26T06:49:54;33.50;99.40
7646;DHT22;3864;48.180;14.178;2023-06-26T06:52:38;34.00;98.90
7646;DHT22;3864;48.180;14.178;2023-06-26T06:55:07;34.10;98.20
7646;DHT22;3864;48.180;14.178;2023-06-26T06:57:40;33.80;98.60
7646;DHT22;3864;48.180;14.178;2023-06-26T07:00:09;33.50;98.20
7646;DHT22;3864;48.180;14.178;2023-06-26T07:02:41;34.30;98.30
7646;DHT22;3864;48.180;14.178;2023-06-26T07:05:12;34.70;97.80
7646;DHT22;3864;48.180;14.178;2023-06-26T07:07:42;33.70;98.10
7646;DHT22;3864;48.180;14.178;2023-06-26T07:10:12;33.00;98.10
7646;DHT22;3864;48.180;14.178;2023-06-26T07:12:39;32.90;99.10
7646;DHT22;3864;48.180;14.178;2023-06-26T07:15:13;32.70;98.50
7646;DHT22;3864;48.180;14.178;2023-06-26T07:17:43;32.70;99.60
7646;DHT22;3864;48.180;14.178;2023-06-26T07:20:13;32.50;99.60
7646;DHT22;3864;48.180;14.178;2023-06-26T07:22:44;32.70;98.30
7646;DHT22;3864;48.180;14.178;2023-06-26T07:25:11;34.40;98.10
7646;DHT22;3864;48.180;14.178;2023-06-26T07:27:39;34.00;95.90
7646;DHT22;3864;48.180;14.178;2023-06-26T07:30:07;35.40;97.80
7646;DHT22;3864;48.180;14.178;2023-06-26T07:32:36;34.50;97.40
7646;DHT22;3864;48.180;14.178;2023-06-26T07:35:04;33.80;97.10
7646;DHT22;3864;48.180;14.178;2023-06-26T07:37:32;33.20;97.90
7646;DHT22;3864;48.180;14.178;2023-06-26T07:40:00;33.40;98.50
7646;DHT22;3864;48.180;14.178;2023-06-26T07:42:28;33.70;98.10
7646;DHT22;3864;48.180;14.178;2023-06-26T07:44:55;33.40;98.30
7646;DHT22;3864;48.180;14.178;2023-06-26T07:47:22;32.80;98.50
7646;DHT22;3864;48.180;14.178;2023-06-26T07:49:50;32.60;98.00
7646;DHT22;3864;48.180;14.178;2023-06-26T07:52:18;32.70;98.70
7646;DHT22;3864;48.180;14.178;2023-06-26T07:54:45;33.00;98.60
7646;DHT22;3864;48.180;14.178;2023-06-26T07:57:14;32.70;98.10
7646;DHT22;3864;48.180;14.178;2023-06-26T07:59:42;31.90;98.80
7646;DHT22;3864;48.180;14.178;2023-06-26T08:02:09;31.20;98.80
7646;DHT22;3864;48.180;14.178;2023-06-26T08:04:36;31.70;98.10
7646;DHT22;3864;48.180;14.178;2023-06-26T08:07:04;31.80;97.60
7646;DHT22;3864;48.180;14.178;2023-06-26T08:09:32;31.80;99.10
7646;DHT22;3864;48.180;14.178;2023-06-26T08:11:59;31.80;98.30
7646;DHT22;3864;48.180;14.178;2023-06-26T08:14:29;31.70;98.90
7646;DHT22;3864;48.180;14.178;2023-06-26T08:16:57;32.00;99.30
7646;DHT22;3864;48.180;14.178;2023-06-26T08:19:25;31.90;98.50
7646;DHT22;3864;48.180;14.178;2023-06-26T08:21:52;31.80;99.00
7646;DHT22;3864;48.180;14.178;2023-06-26T08:24:19;31.80;99.50
7646;DHT22;3864;48.180;14.178;2023-06-26T08:26:47;31.60;99.90
7646;DHT22;3864;48.180;14.178;2023-06-26T08:29:15;30.90;99.90
7646;DHT22;3864;48.180;14.178;2023-06-26T08:31:44;30.40;98.60
7646;DHT22;3864;48.180;14.178;2023-06-26T08:34:11;30.10;98.70
7646;DHT22;3864;48.180;14.178;2023-06-26T08:36:39;29.80;99.80
7646;DHT22;3864;48.180;14.178;2023-06-26T08:39:06;29.90;99.90
7646;DHT22;3864;48.180;14.178;2023-06-26T08:41:34;30.00;99.90
7646;DHT22;3864;48.180;14.178;2023-06-26T08:44:02;29.80;99.90
7646;DHT22;3864;48.180;14.178;2023-06-26T08:46:30;29.70;99.90
7646;DHT22;3864;48.180;14.178;2023-06-26T08:49:12;29.50;99.30
7646;DHT22;3864;48.180;14.178;2023-06-26T08:51:43;29.00;98.60
7646;DHT22;3864;48.180;14.178;2023-06-26T08:54:15;29.60;98.30
7646;DHT22;3864;48.180;14.178;2023-06-26T08:56:46;30.30;99.90
7646;DHT22;3864;48.180;14.178;2023-06-26T08:59:15;30.70;99.90
7646;DHT22;3864;48.180;14.178;2023-06-26T09:01:43;30.50;99.90
7646;DHT22;3864;48.180;14.178;2023-06-26T09:04:12;31.20;99.30
7646;DHT22;3864;48.180;14.178;2023-06-26T09:06:39;30.60;97.20
7646;DHT22;3864;48.180;14.178;2023-06-26T09:09:07;31.10;97.40
7646;DHT22;3864;48.180;14.178;2023-06-26T09:11:36;31.50;99.50
7646;DHT22;3864;48.180;14.178;2023-06-26T09:14:03;31.40;99.00
7646;DHT22;3864;48.180;14.178;2023-06-26T09:16:39;31.00;96.60
7646;DHT22;3864;48.180;14.178;2023-06-26T09:19:09;31.30;97.20
7646;DHT22;3864;48.180;14.178;2023-06-26T09:21:40;31.80;99.40
7646;DHT22;3864;48.180;14.178;2023-06-26T09:24:07;32.00;99.90
7646;DHT22;3864;48.180;14.178;2023-06-26T09:26:36;32.10;99.80
7646;DHT22;3864;48.180;14.178;2023-06-26T09:29:04;31.90;98.80
7646;DHT22;3864;48.180;14.178;2023-06-26T09:31:32;31.70;99.90
7646;DHT22;3864;48.180;14.178;2023-06-26T09:34:02;31.60;98.90
7646;DHT22;3864;48.180;14.178;2023-06-26T09:36:30;31.80;99.10
7646;DHT22;3864;48.180;14.178;2023-06-26T09:39:01;31.80;99.20
7646;DHT22;3864;48.180;14.178;2023-06-26T09:41:30;32.40;99.10
7646;DHT22;3864;48.180;14.178;2023-06-26T09:44:01;32.70;97.70
7646;DHT22;3864;48.180;14.178;2023-06-26T09:46:29;32.70;97.20
7646;DHT22;3864;48.180;14.178;2023-06-26T09:49:02;33.30;99.50
7646;DHT22;3864;48.180;14.178;2023-06-26T09:51:31;33.50;98.80
7646;DHT22;3864;48.180;14.178;2023-06-26T09:54:00;33.70;97.70
7646;DHT22;3864;48.180;14.178;2023-06-26T09:56:29;33.60;95.10
7646;DHT22;3864;48.180;14.178;2023-06-26T09:59:03;33.60;95.00
7646;DHT22;3864;48.180;14.178;2023-06-26T10:01:36;33.60;95.50
7646;DHT22;3864;48.180;14.178;2023-06-26T10:04:04;33.60;98.00
7646;DHT22;3864;48.180;14.178;2023-06-26T10:06:33;33.40;96.80
7646;DHT22;3864;48.180;14.178;2023-06-26T10:09:02;33.20;98.00
7646;DHT22;3864;48.180;14.178;2023-06-26T10:11:35;33.30;97.40
7646;DHT22;3864;48.180;14.178;2023-06-26T10:14:04;33.50;97.00
7646;DHT22;3864;48.180;14.178;2023-06-26T10:16:35;33.90;97.80
7646;DHT22;3864;48.180;14.178;2023-06-26T10:19:08;33.80;95.40
7646;DHT22;3864;48.180;14.178;2023-06-26T10:21:38;33.60;93.20
7646;DHT22;3864;48.180;14.178;2023-06-26T10:24:10;33.80;95.60
7646;DHT22;3864;48.180;14.178;2023-06-26T10:26:44;33.60;95.30
7646;DHT22;3864;48.180;14.178;2023-06-26T10:29:12;33.20;93.50
7646;DHT22;3864;48.180;14.178;2023-06-26T10:31:44;32.40;93.30
7646;DHT22;3864;48.180;14.178;2023-06-26T10:34:13;32.80;94.40
7646;DHT22;3864;48.180;14.178;2023-06-26T10:36:41;33.20;94.50
7646;DHT22;3864;48.180;14.178;2023-06-26T10:39:09;32.40;93.60
7646;DHT22;3864;48.180;14.178;2023-06-26T10:41:37;33.20;93.30
7646;DHT22;3864;48.180;14.178;2023-06-26T10:44:09;33.70;95.80
7646;DHT22;3864;48.180;14.178;2023-06-26T10:46:50;34.30;97.00
7646;DHT22;3864;48.180;14.178;2023-06-26T10:49:19;34.00;96.40
7646;DHT22;3864;48.180;14.178;2023-06-26T10:51:47;34.30;96.80
7646;DHT22;3864;48.180;14.178;2023-06-26T10:54:17;34.40;97.10
7646;DHT22;3864;48.180;14.178;2023-06-26T10:56:46;33.80;94.30
7646;DHT22;3864;48.180;14.178;2023-06-26T10:59:17;33.40;92.90
7646;DHT22;3864;48.180;14.178;2023-06-26T11:01:46;33.40;96.20
7646;DHT22;3864;48.180;14.178;2023-06-26T11:04:14;33.40;93.70
7646;DHT22;3864;48.180;14.178;2023-06-26T11:06:47;33.20;93.00
7646;DHT22;3864;48.180;14.178;2023-06-26T11:09:24;33.60;95.70
7646;DHT22;3864;48.180;14.178;2023-06-26T11:11:59;34.10;95.80
7646;DHT22;3864;48.180;14.178;2023-06-26T11:14:40;34.00;94.70
7646;DHT22;3864;48.180;14.178;2023-06-26T11:17:08;34.30;95.80
7646;DHT22;3864;48.180;14.178;2023-06-26T11:19:36;33.70;93.10
7646;DHT22;3864;48.180;14.178;2023-06-26T11:22:04;33.70;95.50
7646;DHT22;3864;48.180;14.178;2023-06-26T11:24:33;34.00;92.70
7646;DHT22;3864;48.180;14.178;2023-06-26T11:27:02;32.70;91.90
7646;DHT22;3864;48.180;14.178;2023-06-26T11:29:32;33.20;95.70
7646;DHT22;3864;48.180;14.178;2023-06-26T11:32:01;33.20;94.00
7646;DHT22;3864;48.180;14.178;2023-06-26T11:34:31;33.70;95.70
7646;DHT22;3864;48.180;14.178;2023-06-26T11:36:58;33.80;94.00
7646;DHT22;3864;48.180;14.178;2023-06-26T11:39:28;33.80;94.60
7646;DHT22;3864;48.180;14.178;2023-06-26T11:41:57;34.00;94.60
7646;DHT22;3864;48.180;14.178;2023-06-26T11:44:29;34.00;96.20
7646;DHT22;3864;48.180;14.178;2023-06-26T11:46:57;34.00;96.00
7646;DHT22;3864;48.180;14.178;2023-06-26T11:49:24;34.00;95.00
7646;DHT22;3864;48.180;14.178;2023-06-26T11:51:53;33.50;92.70
7646;DHT22;3864;48.180;14.178;2023-06-26T11:54:25;33.60;95.20
7646;DHT22;3864;48.180;14.178;2023-06-26T11:56:54;34.20;94.40
7646;DHT22;3864;48.180;14.178;2023-06-26T11:59:33;34.60;95.60
7646;DHT22;3864;48.180;14.178;2023-06-26T12:02:00;33.60;93.10
7646;DHT22;3864;48.180;14.178;2023-06-26T12:04:31;33.60;92.50
7646;DHT22;3864;48.180;14.178;2023-06-26T12:06:59;33.90;94.60
7646;DHT22;3864;48.180;14.178;2023-06-26T12:09:30;34.00;93.20
7646;DHT22;3864;48.180;14.178;2023-06-26T12:11:59;33.90;92.50
7646;DHT22;3864;48.180;14.178;2023-06-26T12:14:29;34.20;93.90
7646;DHT22;3864;48.180;14.178;2023-06-26T12:17:04;34.40;92.00
7646;DHT22;3864;48.180;14.178;2023-06-26T12:19:36;35.00;92.20
7646;DHT22;3864;48.180;14.178;2023-06-26T12:22:06;34.60;92.50
7646;DHT22;3864;48.180;14.178;2023-06-26T12:24:36;34.30;91.40
7646;DHT22;3864;48.180;14.178;2023-06-26T12:27:08;34.90;94.40
7646;DHT22;3864;48.180;14.178;2023-06-26T12:29:38;34.90;94.10
7646;DHT22;3864;48.180;14.178;2023-06-26T12:32:08;35.10;94.20
7646;DHT22;3864;48.180;14.178;2023-06-26T12:34:38;34.90;91.10
7646;DHT22;3864;48.180;14.178;2023-06-26T12:37:07;35.10;94.40
7646;DHT22;3864;48.180;14.178;2023-06-26T12:39:48;34.40;93.90
7646;DHT22;3864;48.180;14.178;2023-06-26T12:42:16;34.20;91.70
7646;DHT22;3864;48.180;14.178;2023-06-26T12:44:46;33.70;92.50
7646;DHT22;3864;48.180;14.178;2023-06-26T12:47:14;34.10;91.40
7646;DHT22;3864;48.180;14.178;2023-06-26T12:49:45;34.40;94.80
7646;DHT22;3864;48.180;14.178;2023-06-26T12:52:14;34.60;91.70
7646;DHT22;3864;48.180;14.178;2023-06-26T12:54:42;34.30;93.10
7646;DHT22;3864;48.180;14.178;2023-06-26T12:57:12;34.80;90.80
7646;DHT22;3864;48.180;14.178;2023-06-26T12:59:40;34.60;90.30
7646;DHT22;3864;48.180;14.178;2023-06-26T13:02:09;34.50;90.40
7646;DHT22;3864;48.180;14.178;2023-06-26T13:04:37;35.00;90.50
7646;DHT22;3864;48.180;14.178;2023-06-26T13:07:06;34.60;91.40
7646;DHT22;3864;48.180;14.178;2023-06-26T13:09:34;34.40;90.30
7646;DHT22;3864;48.180;14.178;2023-06-26T13:12:03;34.60;90.30
7646;DHT22;3864;48.180;14.178;2023-06-26T13:14:30;34.30;90.90
7646;DHT22;3864;48.180;14.178;2023-06-26T13:16:58;34.50;90.60
7646;DHT22;3864;48.180;14.178;2023-06-26T13:19:26;34.60;91.20
7646;DHT22;3864;48.180;14.178;2023-06-26T13:21:54;34.20;91.20
7646;DHT22;3864;48.180;14.178;2023-06-26T13:24:21;34.80;92.00
7646;DHT22;3864;48.180;14.178;2023-06-26T13:26:49;35.10;90.40
7646;DHT22;3864;48.180;14.178;2023-06-26T13:29:16;35.20;89.80
7646;DHT22;3864;48.180;14.178;2023-06-26T13:31:43;35.40;88.80
7646;DHT22;3864;48.180;14.178;2023-06-26T13:34:20;34.40;88.40
7646;DHT22;3864;48.180;14.178;2023-06-26T13:36:49;34.60;90.30
7646;DHT22;3864;48.180;14.178;2023-06-26T13:39:16;33.80;90.00
7646;DHT22;3864;48.180;14.178;2023-06-26T13:41:44;33.20;90.00
7646;DHT22;3864;48.180;14.178;2023-06-26T13:44:11;32.50;89.00
7646;DHT22;3864;48.180;14.178;2023-06-26T13:46:38;32.20;90.60
7646;DHT22;3864;48.180;14.178;2023-06-26T13:49:06;31.80;91.10
7646;DHT22;3864;48.180;14.178;2023-06-26T13:51:33;32.00;91.10
7646;DHT22;3864;48.180;14.178;2023-06-26T13:54:02;32.50;92.40
7646;DHT22;3864;48.180;14.178;2023-06-26T13:56:30;33.30;90.60
7646;DHT22;3864;48.180;14.178;2023-06-26T13:58:58;34.10;90.00
7646;DHT22;3864;48.180;14.178;2023-06-26T14:01:25;34.00;89.60
7646;DHT22;3864;48.180;14.178;2023-06-26T14:03:53;33.40;87.10
7646;DHT22;3864;48.180;14.178;2023-06-26T14:06:20;33.40;87.10
7646;DHT22;3864;48.180;14.178;2023-06-26T14:08:47;33.80;88.30
7646;DHT22;3864;48.180;14.178;2023-06-26T14:11:16;34.00;89.20
7646;DHT22;3864;48.180;14.178;2023-06-26T14:13:44;34.20;89.90
7646;DHT22;3864;48.180;14.178;2023-06-26T14:16:11;34.50;87.10
7646;DHT22;3864;48.180;14.178;2023-06-26T14:18:38;34.80;90.20
7646;DHT22;3864;48.180;14.178;2023-06-26T14:21:06;34.20;86.20
7646;DHT22;3864;48.180;14.178;2023-06-26T14:23:33;34.30;86.00
7646;DHT22;3864;48.180;14.178;2023-06-26T14:26:01;34.90;88.50
7646;DHT22;3864;48.180;14.178;2023-06-26T14:28:30;35.30;90.10
7646;DHT22;3864;48.180;14.178;2023-06-26T14:30:57;35.20;86.30
7646;DHT22;3864;48.180;14.178;2023-06-26T14:33:24;35.50;84.80
7646;DHT22;3864;48.180;14.178;2023-06-26T14:35:51;35.40;83.10
7646;DHT22;3864;48.180;14.178;2023-06-26T14:38:19;36.00;84.10
7646;DHT22;3864;48.180;14.178;2023-06-26T14:40:46;35.70;83.40
7646;DHT22;3864;48.180;14.178;2023-06-26T14:43:13;34.80;82.80
7646;DHT22;3864;48.180;14.178;2023-06-26T14:45:42;35.30;86.50
7646;DHT22;3864;48.180;14.178;2023-06-26T14:48:09;35.00;84.70
7646;DHT22;3864;48.180;14.178;2023-06-26T14:50:36;35.40;86.00
7646;DHT22;3864;48.180;14.178;2023-06-26T14:53:04;35.60;85.00
7646;DHT22;3864;48.180;14.178;2023-06-26T14:55:31;35.10;83.20
7646;DHT22;3864;48.180;14.178;2023-06-26T14:57:58;35.20;85.20
7646;DHT22;3864;48.180;14.178;2023-06-26T15:00:26;35.60;90.20
7646;DHT22;3864;48.180;14.178;2023-06-26T15:02:55;35.50;83.10
7646;DHT22;3864;48.180;14.178;2023-06-26T15:05:24;35.80;89.70
7646;DHT22;3864;48.180;14.178;2023-06-26T15:07:51;35.50;88.50
7646;DHT22;3864;48.180;14.178;2023-06-26T15:10:18;35.10;84.40
7646;DHT22;3864;48.180;14.178;2023-06-26T15:12:47;34.90;83.20
7646;DHT22;3864;48.180;14.178;2023-06-26T15:15:15;34.80;82.80
7646;DHT22;3864;48.180;14.178;2023-06-26T15:17:43;34.50;84.10
7646;DHT22;3864;48.180;14.178;2023-06-26T15:20:12;34.00;86.40
7646;DHT22;3864;48.180;14.178;2023-06-26T15:22:39;34.00;87.80
7646;DHT22;3864;48.180;14.178;2023-06-26T15:25:07;33.90;84.00
7646;DHT22;3864;48.180;14.178;2023-06-26T15:27:35;34.20;83.70
7646;DHT22;3864;48.180;14.178;2023-06-26T15:30:03;34.50;85.60
7646;DHT22;3864;48.180;14.178;2023-06-26T15:32:31;34.80;84.40
7646;DHT22;3864;48.180;14.178;2023-06-26T15:34:58;35.00;83.60
7646;DHT22;3864;48.180;14.178;2023-06-26T15:37:27;35.10;87.20
7646;DHT22;3864;48.180;14.178;2023-06-26T15:39:55;34.30;83.50
7646;DHT22;3864;48.180;14.178;2023-06-26T15:42:25;34.00;83.50
7646;DHT22;3864;48.180;14.178;2023-06-26T15:44:54;34.10;85.10
7646;DHT22;3864;48.180;14.178;2023-06-26T15:47:21;34.60;85.30
7646;DHT22;3864;48.180;14.178;2023-06-26T15:49:49;34.50;84.10
7646;DHT22;3864;48.180;14.178;2023-06-26T15:52:16;34.70;84.60
7646;DHT22;3864;48.180;14.178;2023-06-26T15:54:45;35.30;83.80